_Rio _ im Turnier von 01.01.2019 bis 01.02.2019

_Rio _s Ergebnis

Rang 212.
Turnierpunkte 988
Gespielt : Gewonnen 100 : 60
Schneider 12
Bilanz 592:456

_Rio _s Bummerln

Zeit Gegner Ergebnis Ende
03:24:25 am 06.01.2019 Gerry 8:6 normal
03:07:58 am 06.01.2019 Roman Strobl 8:2 normal
02:54:48 am 06.01.2019 Bernhard Perchtold 2:8 normal
02:48:58 am 06.01.2019 Mani1972 1:8 normal
02:43:36 am 06.01.2019 Andreas Pajones 7:1 normal
02:36:42 am 06.01.2019 Tadej Began 4:8 normal
02:32:19 am 06.01.2019 Bosanac 10 6:9 normal
02:29:19 am 06.01.2019 DELETED 0:8 normal
02:10:02 am 06.01.2019 zorro_super 7:4 normal
02:00:06 am 06.01.2019 Gerhard 1908 8:3 normal
01:56:40 am 06.01.2019 ranzi44 7:5 normal
01:31:57 am 06.01.2019 odo1230 6:7 normal
01:29:30 am 06.01.2019 jogl 8:0 normal
01:22:50 am 06.01.2019 Alyn 9:6 normal
01:18:46 am 06.01.2019 Mike19582 7:0 normal
01:15:46 am 06.01.2019 ww14 2:7 normal
01:11:29 am 06.01.2019 SM-A300FU jessika 8:0 normal
01:06:44 am 06.01.2019 Christian Kainz 7:5 normal
00:58:42 am 06.01.2019 Jotti 7:3 normal
00:54:29 am 06.01.2019 Christian Deutschmann 9:1 normal
00:49:15 am 06.01.2019 Schnopser 8:5 normal
23:41:42 am 05.01.2019 king1200 7:2 normal
23:36:08 am 05.01.2019 Thomas Maierhofer 8:2 normal
23:30:28 am 05.01.2019 wirtshausrunde 7:2 normal
23:22:45 am 05.01.2019 Andreass iPad 6:8 normal
22:44:55 am 05.01.2019 Mia5 8:1 normal
22:42:03 am 05.01.2019 Hexilein 2:7 normal
22:35:00 am 05.01.2019 Tanja Pfeifer 6:7 normal
22:30:31 am 05.01.2019 Bernd Unterweger 1:8 normal
21:57:25 am 05.01.2019 Michael Lesky 9:2 normal
21:54:19 am 05.01.2019 Andreas Holzer 2:7 normal
21:48:41 am 05.01.2019 Natrixe 6:7 normal
21:45:51 am 05.01.2019 CörTom 8:2 normal
21:38:29 am 05.01.2019 Manfred Mitteregger 5:8 normal
20:43:07 am 05.01.2019 Fritz 7:0 normal
20:37:20 am 05.01.2019 norbert 7:4 normal
20:32:48 am 05.01.2019 Wolfgang 12 1:7 normal
20:30:28 am 05.01.2019 Hr Heinz 7:1 normal
20:27:37 am 05.01.2019 Tamás Császár 7:3 normal
20:22:57 am 05.01.2019 Chris.P. 4:8 normal
20:20:46 am 05.01.2019 san pirmir 7:0 normal
20:15:40 am 05.01.2019 *Barbarita 7:3 autocontnormal
20:12:07 am 05.01.2019 matjaz 5:9 normal
19:51:48 am 05.01.2019 Carpe diem!! 8:2 normal
19:47:06 am 05.01.2019 *Károly Kovács 7:4 autocontnormal
19:42:08 am 05.01.2019 Peter2000PeterPingist 8:1 normal
19:36:32 am 05.01.2019 Speedy 7:0 normal
19:32:18 am 05.01.2019 Puszta Madár 7:6 normal
19:26:41 am 05.01.2019 niki 4:8 normal
18:52:36 am 05.01.2019 Dani 8:4 normal
18:48:37 am 05.01.2019 fearius91 8:1 normal
18:45:26 am 05.01.2019 Trumpf 8:2 normal
18:22:44 am 05.01.2019 Spizy 7:1 normal
18:19:29 am 05.01.2019 martinL. 3:7 normal
18:11:47 am 05.01.2019 SM-P605 7:4 normal
18:08:04 am 05.01.2019 vali 4:8 normal
18:04:37 am 05.01.2019 gust2 2:7 normal
18:00:05 am 05.01.2019 Anastassia 17 7:3 normal
17:56:51 am 05.01.2019 tann 8:1 normal
17:51:58 am 05.01.2019 SM-G900F 7:3 normal
14:03:30 am 05.01.2019 *Rene 7:2 autocontnormal
05:00:44 am 05.01.2019 rti70 3:7 normal
04:56:40 am 05.01.2019 Firewheel 8:4 normal
04:33:16 am 05.01.2019 Pacco 8:4 normal
04:29:24 am 05.01.2019 SM-G935F 3:7 normal
04:23:43 am 05.01.2019 mani 6:8 normal
04:12:23 am 05.01.2019 1.3.1.2. 7:5 normal
04:07:05 am 05.01.2019 jan1 7:5 normal
02:53:35 am 05.01.2019 Ttauschi 6:8 normal
02:47:56 am 05.01.2019 Juka 7:4 normal
02:42:55 am 05.01.2019 srce moje 7:3 normal
01:20:04 am 05.01.2019 holyblex1 3:8 normal
01:14:45 am 05.01.2019 Hypo 3:9 normal
01:08:52 am 05.01.2019 Mike (temp) 4:7 normal
01:00:05 am 05.01.2019 Barry 5:7 normal
00:55:40 am 05.01.2019 bočo 7:6 normal
00:53:14 am 05.01.2019 Dasha 8:0 normal
23:50:26 am 04.01.2019 DELETED 3:7 normal
23:45:34 am 04.01.2019 DELETED 7:3 normal
23:39:52 am 04.01.2019 Bettina Fischl 2:7 normal
23:36:51 am 04.01.2019 Herbert 9:0 normal
23:11:33 am 04.01.2019 Ema 7:0 normal
19:27:18 am 03.01.2019 WettenDass??? 8:6 normal
19:23:03 am 03.01.2019 noname 7:3 normal
19:11:27 am 03.01.2019 Lexus 6:7 normal
19:02:42 am 03.01.2019 Froanz 4:7 normal
18:12:09 am 03.01.2019 Alexander Fasching 8:2 normal
18:05:55 am 03.01.2019 Fred Nawratil 7:0 normal
17:59:35 am 03.01.2019 Gustavo Limes 3:8 normal
11:12:36 am 03.01.2019 Glücksspieler 6:8 normal
11:07:32 am 03.01.2019 fredl 3:7 normal
11:01:00 am 03.01.2019 i.n.p.e.f.e.s.s. 7:4 normal
10:52:56 am 03.01.2019 samsung SM-N960F 3:7 normal
16:18:38 am 02.01.2019 Helga Wolf 6:7 normal
16:14:04 am 02.01.2019 Werner.m 0:8 normal
16:12:14 am 02.01.2019 Evi 7:0 normal
16:08:54 am 02.01.2019 spax 2:8 normal
16:05:24 am 02.01.2019 kaffeesiada67 7:5 normal
15:57:33 am 02.01.2019 Leonie 7:0 normal
15:53:18 am 02.01.2019 boko 8:2 normal